Terminal Aerodrome Forecast
Issued by NWS

Current Version | Previous Version | Graphics & Text | Print | Product List | Glossary On
Versions: 1 2 3 4 5 6 7 8 9 10 11 12 13 14 15 16 17 18 19 20 21 22 23 24 25 26
000
FTUS41 KPBZ 240300 AAA
TAFHLG
TAF AMD
KHLG 240319Z 2403/2424 VRB03KT 2SM -SN OVC008
     FM241100 32003KT 4SM BR OVC015
     FM241800 26009KT P6SM BKN025=

USA.gov is the U.S. government's official web portal to all federal, state and local government web resources and services.